KEHR

Henderson City-County Airport

Henderson, Kentucky, USA
METAR KEHR 230056Z AUTO 20004KT 10SM CLR 10/02 A3018 RMK AO2 SLP234 T01000022
Observed Flight Rules
Oct-23 @ 00:56 UTC (45 minutes ago) Visual Flight Rules
Wind Visibility Clouds
200° at 4 knots 10 miles
  • Clear skies
Temperatures Readings
Current 10°C / 50°F
Dewpoint 2°C / 36°F
Humidity 58%
Altimeter 30.18" Hg
Pressure 1023.4 hPa
Elevation 117
METAR KEHR 230056Z AUTO 20004KT 10SM CLR 10/02 A3018 RMK AO2 SLP234 T01000022
Observed Flight Rules
Oct-23 @ 00:56 UTC
(45 minutes ago)
VFR
Wind Visibility
200° at 4 knots 10 miles
Clouds
  • Clear skies
Temperature Dewpoint
10°C / 50°F 2°C / 36°F
Humidity Altimeter Pressure
58% 30.18" Hg 1023.4 hPa